Billings (BIL/KBIL)

Map

Information

Location
Billings, MT
Local Time
07:12 / 7:12 am
GMT Time
14:12 / 2:12 pm
Gates
Unassigned
No FAA reported delays
METAR KBIL 221353Z 23015KT 10SM FEW090 SCT180 M03/M08 A2981 RMK AO2 SLP128 T10281078
TAF KBIL 221127Z 2212/2312 23013KT P6SM SCT090 FM230300 20006KT P6SM SCT100
  • No charts available